| time (UTC) | temp F | wind direction | speed MPH | gust MPH | rain 1hr in | rain 24hr in | rain mn in | humidity % | barometer mb |
| 20260507195629 | 45 | 174 | 6.0 | 7.0 | 0.00 | 0.00 | 0.00 | 76 | 999.4 |
| 20260507195127 | 45 | 179 | 5.0 | 6.0 | 0.00 | 0.00 | 0.00 | 77 | 999.4 |
| 20260507194621 | 45 | 183 | 5.0 | 6.0 | 0.00 | 0.00 | 0.00 | 81 | 999.5 |
| 20260507194116 | 45 | 191 | 5.0 | 6.0 | 0.00 | 0.00 | 0.00 | 81 | 999.4 |
| 20260507193612 | 45 | 177 | 5.0 | 6.0 | 0.00 | 0.00 | 0.00 | 79 | 999.3 |
| 20260507193108 | 46 | 175 | 5.0 | 6.0 | 0.00 | 0.00 | 0.00 | 80 | 999.3 |
| 20260507192604 | 46 | 175 | 5.0 | 7.0 | 0.00 | 0.00 | 0.00 | 77 | 999.2 |
| 20260507192103 | 46 | 168 | 6.0 | 7.0 | 0.00 | 0.00 | 0.00 | 75 | 999.0 |
| 20260507191545 | 46 | 168 | 5.0 | 6.0 | 0.00 | 0.00 | 0.00 | 76 | 999.0 |
| 20260507191040 | 47 | 175 | 5.0 | 7.0 | 0.00 | 0.00 | 0.00 | 74 | 999.2 |
| 20260507190536 | 47 | 170 | 5.0 | 7.0 | 0.00 | 0.00 | 0.00 | 72 | 998.9 |
| 20260507190032 | 47 | 174 | 5.0 | 7.0 | 0.00 | 0.00 | 0.00 | 73 | 998.9 |
| 20260507190010 | 47 | 172 | 5.0 | 6.0 | 0.00 | 0.00 | 0.00 | 74 | 999.0 |
| 20260507185025 | 47 | 180 | 5.0 | 6.0 | 0.00 | 0.00 | 0.00 | 74 | 998.9 |
| 20260507184519 | 47 | 183 | 5.0 | 6.0 | 0.00 | 0.00 | 0.00 | 73 | 998.9 |
| 20260507184016 | 46 | 174 | 6.0 | 6.0 | 0.00 | 0.00 | 0.00 | 67 | 998.8 |
| 20260507183511 | 46 | 175 | 5.0 | 6.0 | 0.00 | 0.00 | 0.00 | 71 | 998.7 |
| 20260507183225 | 46 | 171 | 6.0 | 6.0 | 0.00 | 0.00 | 0.00 | 76 | 998.6 |
| 20260507182505 | 47 | 169 | 6.0 | 6.0 | 0.00 | 0.00 | 0.00 | 72 | 998.6 |
| 20260507182000 | 47 | 170 | 5.0 | 6.0 | 0.00 | 0.00 | 0.00 | 72 | 998.4 |
| 20260507181456 | 47 | 171 | 5.0 | 6.0 | 0.00 | 0.00 | 0.00 | 75 | 998.4 |
| 20260507180951 | 47 | 168 | 6.0 | 7.0 | 0.00 | 0.00 | 0.00 | 74 | 998.6 |
| 20260507180437 | 48 | 179 | 5.0 | 7.0 | 0.00 | 0.00 | 0.00 | 73 | 998.5 |
| 20260507175933 | 48 | 166 | 5.0 | 6.0 | 0.00 | 0.00 | 0.00 | 74 | 998.4 |
| 20260507175431 | 49 | 168 | 5.0 | 6.0 | 0.00 | 0.00 | 0.00 | 72 | 998.5 |
| 20260507174931 | 49 | 170 | 5.0 | 7.0 | 0.00 | 0.00 | 0.00 | 72 | 998.3 |
| 20260507174431 | 50 | 169 | 5.0 | 7.0 | 0.00 | 0.00 | 0.00 | 70 | 998.2 |
| 20260507173926 | 50 | 174 | 5.0 | 6.0 | 0.00 | 0.00 | 0.00 | 71 | 998.2 |
| 20260507173412 | 49 | 158 | 6.0 | 6.0 | 0.00 | 0.00 | 0.00 | 74 | 998.4 |
| 20260507172901 | 48 | 175 | 5.0 | 6.0 | 0.00 | 0.00 | 0.00 | 73 | 998.3 |
| 20260507172618 | 49 | 174 | 5.0 | 6.0 | 0.00 | 0.00 | 0.00 | 73 | 998.2 |
| 20260507171851 | 49 | 168 | 5.0 | 6.0 | 0.00 | 0.00 | 0.00 | 73 | 998.3 |
| 20260507171331 | 49 | 174 | 5.0 | 6.0 | 0.00 | 0.00 | 0.00 | 75 | 998.4 |
| 20260507170829 | 49 | 173 | 5.0 | 6.0 | 0.00 | 0.00 | 0.00 | 74 | 998.2 |
| 20260507170330 | 49 | 180 | 5.0 | 6.0 | 0.00 | 0.00 | 0.00 | 68 | 998.4 |
| 20260507170055 | 49 | 180 | 5.0 | 6.0 | 0.00 | 0.00 | 0.00 | 66 | 998.4 |
| 20260507165329 | 49 | 180 | 5.0 | 6.0 | 0.00 | 0.00 | 0.00 | 62 | 998.3 |
| 20260507164815 | 49 | 169 | 5.0 | 6.0 | 0.00 | 0.00 | 0.00 | 63 | 998.3 |
| 20260507164311 | 50 | 173 | 5.0 | 6.0 | 0.00 | 0.00 | 0.00 | 63 | 998.3 |
| 20260507163806 | 50 | 180 | 5.0 | 6.0 | 0.00 | 0.00 | 0.00 | 61 | 998.0 |
| 20260507163511 | 50 | 180 | 5.0 | 6.0 | 0.00 | 0.00 | 0.00 | 59 | 998.2 |
| 20260507162749 | 50 | 181 | 5.0 | 6.0 | 0.00 | 0.00 | 0.00 | 61 | 998.2 |
| 20260507162721 | 51 | 177 | 5.0 | 6.0 | 0.00 | 0.00 | 0.00 | 62 | 998.0 |
| 20260507161741 | 51 | 173 | 5.0 | 6.0 | 0.00 | 0.00 | 0.00 | 64 | 998.0 |
| 20260507161236 | 51 | 170 | 6.0 | 6.0 | 0.00 | 0.00 | 0.00 | 56 | 998.2 |
| 20260507161213 | 52 | 175 | 5.0 | 6.0 | 0.00 | 0.00 | 0.00 | 56 | 998.0 |
| 20260507160227 | 52 | 181 | 4.0 | 7.0 | 0.00 | 0.00 | 0.00 | 61 | 998.2 |
| 20260507155713 | 53 | 179 | 5.0 | 7.0 | 0.00 | 0.00 | 0.00 | 57 | 998.2 |
| 20260507155157 | 53 | 172 | 5.0 | 6.0 | 0.00 | 0.00 | 0.00 | 54 | 998.3 |
| 20260507154653 | 53 | 177 | 4.0 | 6.0 | 0.00 | 0.00 | 0.00 | 54 | 998.2 |
| 20260507154350 | 54 | 177 | 5.0 | 6.0 | 0.00 | 0.00 | 0.00 | 54 | 998.0 |
| 20260507153625 | 54 | 170 | 4.0 | 6.0 | 0.00 | 0.00 | 0.00 | 53 | 998.1 |
| 20260507153111 | 54 | 170 | 5.0 | 6.0 | 0.00 | 0.00 | 0.00 | 53 | 998.2 |
| 20260507152824 | 55 | 182 | 5.0 | 8.0 | 0.00 | 0.00 | 0.00 | 51 | 998.0 |
| 20260507152102 | 56 | 162 | 6.0 | 8.0 | 0.00 | 0.00 | 0.00 | 52 | 998.2 |
| 20260507151557 | 56 | 164 | 5.0 | 8.0 | 0.00 | 0.00 | 0.00 | 47 | 997.9 |
| 20260507151054 | 56 | 155 | 6.0 | 8.0 | 0.00 | 0.01 | 0.00 | 51 | 998.0 |
| 20260507150551 | 56 | 154 | 7.0 | 9.0 | 0.00 | 0.01 | 0.00 | 53 | 998.1 |
| 20260507150058 | 56 | 176 | 4.0 | 9.0 | 0.00 | 0.01 | 0.00 | 58 | 997.9 |
| 20260507145544 | 56 | 163 | 6.0 | 9.0 | 0.00 | 0.01 | 0.00 | 55 | 998.0 |
| 20260507145037 | 56 | 184 | 5.0 | 8.0 | 0.00 | 0.01 | 0.00 | 60 | 998.1 |
| 20260507144750 | 56 | 159 | 6.0 | 6.0 | 0.00 | 0.01 | 0.00 | 57 | 998.2 |
| 20260507144029 | 56 | 177 | 4.0 | 7.0 | 0.00 | 0.01 | 0.00 | 59 | 998.1 |
| 20260507143524 | 57 | 161 | 6.0 | 7.0 | 0.00 | 0.01 | 0.00 | 61 | 998.1 |
| 20260507143020 | 56 | 161 | 5.0 | 7.0 | 0.00 | 0.01 | 0.00 | 60 | 998.1 |
| 20260507142517 | 56 | 174 | 5.0 | 7.0 | 0.00 | 0.01 | 0.00 | 63 | 998.2 |
| 20260507142013 | 56 | 173 | 5.0 | 6.0 | 0.00 | 0.01 | 0.00 | 65 | 998.2 |
| 20260507141458 | 56 | 170 | 5.0 | 6.0 | 0.00 | 0.01 | 0.00 | 68 | 998.0 |
| 20260507141220 | 56 | 164 | 6.0 | 6.0 | 0.00 | 0.01 | 0.00 | 68 | 998.0 |
| 20260507140454 | 56 | 168 | 5.0 | 6.0 | 0.00 | 0.01 | 0.00 | 66 | 998.2 |
| 20260507140215 | 55 | 175 | 5.0 | 6.0 | 0.00 | 0.01 | 0.01 | 72 | 998.2 |
| 20260507135451 | 55 | 172 | 4.0 | 6.0 | 0.00 | 0.01 | 0.01 | 70 | 998.1 |
| 20260507134948 | 56 | 177 | 5.0 | 6.0 | 0.00 | 0.01 | 0.01 | 72 | 998.2 |
| 20260507134703 | 56 | 181 | 4.0 | 6.0 | 0.00 | 0.01 | 0.01 | 68 | 998.1 |
| 20260507133939 | 57 | 177 | 5.0 | 6.0 | 0.00 | 0.01 | 0.01 | 70 | 998.2 |
| 20260507133435 | 57 | 178 | 5.0 | 6.0 | 0.00 | 0.01 | 0.01 | 70 | 998.0 |
| 20260507133147 | 57 | 180 | 5.0 | 7.0 | 0.00 | 0.01 | 0.01 | 67 | 998.0 |
| 20260507132425 | 58 | 175 | 5.0 | 7.0 | 0.00 | 0.01 | 0.01 | 65 | 998.0 |
| 20260507131924 | 58 | 165 | 5.0 | 6.0 | 0.00 | 0.01 | 0.01 | 65 | 997.9 |
| 20260507131423 | 58 | 169 | 5.0 | 6.0 | 0.00 | 0.01 | 0.01 | 65 | 997.6 |
| 20260507130937 | 58 | 177 | 5.0 | 6.0 | 0.00 | 0.01 | 0.01 | 62 | 997.8 |
| 20260507130638 | 58 | 173 | 5.0 | 6.0 | 0.00 | 0.01 | 0.01 | 63 | 997.7 |
| 20260507125916 | 58 | 173 | 5.0 | 6.0 | 0.00 | 0.01 | 0.01 | 63 | 997.6 |
| 20260507125411 | 59 | 180 | 5.0 | 7.0 | 0.00 | 0.01 | 0.01 | 62 | 997.7 |
| 20260507124907 | 59 | 160 | 5.0 | 7.0 | 0.00 | 0.01 | 0.01 | 60 | 997.5 |
| 20260507124352 | 60 | 173 | 5.0 | 7.0 | 0.00 | 0.01 | 0.01 | 59 | 997.7 |
| 20260507123848 | 60 | 174 | 5.0 | 6.0 | 0.00 | 0.01 | 0.01 | 55 | 997.8 |
| 20260507123344 | 60 | 174 | 5.0 | 6.0 | 0.00 | 0.01 | 0.01 | 57 | 997.6 |
| 20260507122840 | 60 | 179 | 5.0 | 6.0 | 0.00 | 0.01 | 0.01 | 58 | 997.2 |
| 20260507122604 | 60 | 168 | 6.0 | 6.0 | 0.00 | 0.01 | 0.01 | 55 | 997.3 |
| 20260507121832 | 60 | 179 | 5.0 | 6.0 | 0.00 | 0.01 | 0.01 | 57 | 997.3 |
| 20260507121547 | 61 | 180 | 4.0 | 6.0 | 0.00 | 0.01 | 0.01 | 57 | 997.1 |
| 20260507120814 | 61 | 184 | 5.0 | 6.0 | 0.00 | 0.01 | 0.01 | 55 | 997.2 |
| 20260507120310 | 61 | 179 | 4.0 | 8.0 | 0.00 | 0.01 | 0.01 | 53 | 997.3 |
| 20260507115805 | 62 | 178 | 5.0 | 8.0 | 0.00 | 0.01 | 0.01 | 53 | 997.3 |
| 20260507115252 | 62 | 182 | 4.0 | 8.0 | 0.00 | 0.01 | 0.01 | 50 | 997.2 |
| 20260507114751 | 62 | 172 | 5.0 | 9.0 | 0.00 | 0.01 | 0.01 | 55 | 997.0 |
| 20260507114251 | 62 | 158 | 6.0 | 9.0 | 0.00 | 0.01 | 0.01 | 53 | 997.3 |
| 20260507113751 | 62 | 184 | 5.0 | 8.0 | 0.00 | 0.01 | 0.01 | 52 | 997.3 |
| 20260507113516 | 62 | 171 | 6.0 | 8.0 | 0.00 | 0.01 | 0.01 | 53 | 997.5 |
| 20260507113012 | 62 | 166 | 5.0 | 8.0 | 0.00 | 0.01 | 0.01 | 53 | 997.3 |
| 20260507112236 | 62 | 172 | 5.0 | 8.0 | 0.00 | 0.01 | 0.01 | 52 | 997.0 |
| 20260507111733 | 62 | 166 | 6.0 | 7.0 | 0.00 | 0.01 | 0.01 | 53 | 997.2 |
| 20260507111229 | 62 | 164 | 5.0 | 8.0 | 0.00 | 0.01 | 0.01 | 53 | 997.0 |
| 20260507110933 | 62 | 188 | 5.0 | 8.0 | 0.00 | 0.01 | 0.01 | 51 | 996.8 |
| 20260507110436 | 62 | 190 | 5.0 | 8.0 | 0.00 | 0.01 | 0.01 | 51 | 996.8 |
| 20260507105706 | 62 | 184 | 5.0 | 7.0 | 0.00 | 0.01 | 0.01 | 51 | 996.6 |
| 20260507105202 | 63 | 163 | 5.0 | 8.0 | 0.00 | 0.01 | 0.01 | 52 | 996.5 |
| 20260507104658 | 63 | 173 | 5.0 | 8.0 | 0.00 | 0.01 | 0.01 | 51 | 996.4 |
| 20260507104153 | 63 | 170 | 7.0 | 8.0 | 0.00 | 0.01 | 0.01 | 50 | 996.3 |
| 20260507103650 | 63 | 192 | 5.0 | 8.0 | 0.00 | 0.01 | 0.01 | 48 | 996.2 |
| 20260507103145 | 63 | 186 | 3.0 | 9.0 | 0.00 | 0.01 | 0.01 | 49 | 996.1 |
| 20260507102641 | 63 | 173 | 7.0 | 9.0 | 0.00 | 0.01 | 0.01 | 48 | 995.9 |
| 20260507102604 | 63 | 174 | 5.0 | 7.0 | 0.00 | 0.01 | 0.01 | 49 | 996.1 |
| 20260507101619 | 63 | 180 | 4.0 | 7.0 | 0.00 | 0.01 | 0.01 | 47 | 995.8 |
| 20260507101119 | 63 | 180 | 5.0 | 7.0 | 0.00 | 0.01 | 0.01 | 50 | 995.7 |
| 20260507100614 | 63 | 176 | 5.0 | 7.0 | 0.00 | 0.01 | 0.01 | 50 | 995.5 |
| 20260507100114 | 64 | 187 | 5.0 | 9.0 | 0.00 | 0.01 | 0.01 | 47 | 995.6 |
| 20260507095606 | 64 | 181 | 6.0 | 9.0 | 0.00 | 0.01 | 0.01 | 46 | 995.5 |
| 20260507095103 | 64 | 175 | 5.0 | 9.0 | 0.00 | 0.01 | 0.01 | 49 | 995.4 |
| 20260507094559 | 64 | 167 | 6.0 | 9.0 | 0.00 | 0.01 | 0.01 | 47 | 995.4 |
| 20260507094044 | 64 | 169 | 6.0 | 7.0 | 0.00 | 0.01 | 0.01 | 47 | 995.2 |
| 20260507093540 | 65 | 170 | 4.0 | 7.0 | 0.00 | 0.01 | 0.01 | 47 | 995.1 |
| 20260507093035 | 65 | 180 | 4.0 | 7.0 | 0.00 | 0.01 | 0.01 | 45 | 995.1 |
| 20260507093023 | 65 | 195 | 5.0 | 8.0 | 0.00 | 0.01 | 0.01 | 46 | 994.9 |
| 20260507092026 | 65 | 176 | 4.0 | 8.0 | 0.00 | 0.01 | 0.01 | 45 | 994.9 |
| 20260507091523 | 66 | 173 | 5.0 | 8.0 | 0.00 | 0.01 | 0.01 | 45 | 994.8 |
| 20260507091019 | 66 | 172 | 4.0 | 8.0 | 0.00 | 0.01 | 0.01 | 46 | 995.0 |
| 20260507090517 | 67 | 188 | 5.0 | 8.0 | 0.00 | 0.01 | 0.01 | 45 | 994.8 |
| 20260507090016 | 67 | 162 | 6.0 | 8.0 | 0.00 | 0.01 | 0.01 | 45 | 994.6 |
| 20260507085517 | 67 | 180 | 5.0 | 8.0 | 0.00 | 0.01 | 0.01 | 45 | 994.6 |
| 20260507085016 | 67 | 169 | 5.0 | 9.0 | 0.00 | 0.01 | 0.01 | 45 | 994.6 |
| 20260507084517 | 67 | 166 | 6.0 | 9.0 | 0.00 | 0.01 | 0.01 | 47 | 994.5 |
| 20260507084014 | 67 | 167 | 6.0 | 7.0 | 0.00 | 0.01 | 0.01 | 45 | 994.7 |
| 20260507083510 | 67 | 184 | 4.0 | 7.0 | 0.00 | 0.01 | 0.01 | 46 | 994.3 |
| 20260507083218 | 67 | 174 | 5.0 | 7.0 | 0.00 | 0.01 | 0.01 | 48 | 994.4 |
| 20260507082451 | 67 | 170 | 5.0 | 7.0 | 0.00 | 0.01 | 0.01 | 43 | 994.3 |
| 20260507082202 | 68 | 182 | 5.0 | 9.0 | 0.00 | 0.01 | 0.01 | 45 | 994.5 |
| 20260507081705 | 68 | 176 | 6.0 | 9.0 | 0.00 | 0.01 | 0.01 | 42 | 994.4 |
| 20260507080930 | 68 | 175 | 5.0 | 8.0 | 0.00 | 0.01 | 0.01 | 41 | 994.2 |
| 20260507080425 | 68 | 178 | 6.0 | 9.0 | 0.00 | 0.01 | 0.01 | 41 | 994.1 |
| 20260507075921 | 68 | 183 | 5.0 | 9.0 | 0.00 | 0.01 | 0.01 | 43 | 993.8 |
| 20260507075414 | 68 | 182 | 4.0 | 9.0 | 0.00 | 0.01 | 0.01 | 43 | 994.0 |
| 20260507075139 | 69 | 163 | 6.0 | 9.0 | 0.00 | 0.01 | 0.01 | 45 | 993.9 |
| 20260507074636 | 68 | 176 | 5.0 | 8.0 | 0.00 | 0.01 | 0.01 | 42 | 993.8 |
| 20260507073913 | 68 | 185 | 5.0 | 8.0 | 0.00 | 0.01 | 0.01 | 43 | 993.8 |
| 20260507073410 | 69 | 168 | 4.0 | 8.0 | 0.00 | 0.01 | 0.01 | 43 | 993.7 |
| 20260507072856 | 69 | 176 | 4.0 | 10.0 | 0.00 | 0.01 | 0.01 | 43 | 993.6 |
| 20260507072615 | 69 | 178 | 5.0 | 10.0 | 0.00 | 0.01 | 0.01 | 42 | 993.6 |
| 20260507071847 | 69 | 182 | 5.0 | 10.0 | 0.00 | 0.01 | 0.01 | 41 | 993.6 |
| 20260507071344 | 69 | 171 | 6.0 | 9.0 | 0.00 | 0.01 | 0.01 | 40 | 993.6 |
| 20260507070839 | 69 | 180 | 4.0 | 7.0 | 0.00 | 0.01 | 0.01 | 44 | 993.4 |
| 20260507070335 | 69 | 168 | 5.0 | 7.0 | 0.00 | 0.01 | 0.01 | 44 | 993.5 |
| 20260507065830 | 70 | 175 | 4.0 | 6.0 | 0.00 | 0.01 | 0.01 | 45 | 993.5 |
| 20260507065325 | 70 | 174 | 5.0 | 6.0 | 0.00 | 0.01 | 0.01 | 42 | 993.4 |
| 20260507064822 | 70 | 175 | 4.0 | 6.0 | 0.00 | 0.01 | 0.01 | 46 | 993.4 |
| 20260507064318 | 71 | 170 | 3.0 | 9.0 | 0.00 | 0.01 | 0.01 | 43 | 993.2 |
| 20260507063812 | 71 | 174 | 5.0 | 9.0 | 0.00 | 0.01 | 0.01 | 43 | 993.0 |
| 20260507063309 | 71 | 174 | 6.0 | 8.0 | 0.00 | 0.01 | 0.01 | 44 | 993.0 |
| 20260507062806 | 71 | 162 | 5.0 | 8.0 | 0.00 | 0.01 | 0.01 | 46 | 992.7 |
| 20260507062305 | 72 | 177 | 5.0 | 6.0 | 0.00 | 0.01 | 0.01 | 47 | 993.1 |
| 20260507061742 | 72 | 180 | 4.0 | 6.0 | 0.00 | 0.01 | 0.01 | 48 | 992.8 |
| 20260507061242 | 72 | 173 | 5.0 | 6.0 | 0.00 | 0.01 | 0.01 | 48 | 993.0 |
| 20260507060739 | 72 | 179 | 5.0 | 6.0 | 0.00 | 0.01 | 0.01 | 48 | 992.9 |
| 20260507060235 | 73 | 177 | 5.0 | 6.0 | 0.00 | 0.01 | 0.01 | 52 | 992.8 |
| 20260507055730 | 73 | 196 | 4.0 | 7.0 | 0.00 | 0.01 | 0.01 | 46 | 992.7 |
| 20260507055451 | 73 | 178 | 4.0 | 7.0 | 0.00 | 0.01 | 0.01 | 47 | 992.7 |
| 20260507054723 | 73 | 168 | 5.0 | 6.0 | 0.00 | 0.01 | 0.01 | 46 | 992.6 |
| 20260507054218 | 74 | 202 | 3.0 | 7.0 | 0.00 | 0.01 | 0.01 | 45 | 992.7 |
| 20260507053714 | 74 | 184 | 4.0 | 8.0 | 0.00 | 0.01 | 0.01 | 47 | 992.5 |
| 20260507053150 | 74 | 174 | 5.0 | 10.0 | 0.00 | 0.01 | 0.01 | 46 | 992.5 |
| 20260507052635 | 74 | 188 | 5.0 | 11.0 | 0.00 | 0.01 | 0.01 | 45 | 992.5 |
| 20260507052130 | 75 | 176 | 6.0 | 11.0 | 0.00 | 0.01 | 0.01 | 45 | 992.4 |
| 20260507051616 | 75 | 181 | 4.0 | 9.0 | 0.00 | 0.01 | 0.01 | 45 | 992.6 |
| 20260507051112 | 75 | 185 | 4.0 | 9.0 | 0.00 | 0.01 | 0.01 | 47 | 992.6 |
| 20260507050825 | 76 | 190 | 5.0 | 9.0 | 0.00 | 0.01 | 0.01 | 45 | 992.5 |
| 20260507050106 | 76 | 170 | 5.0 | 9.0 | 0.00 | 0.01 | 0.01 | 43 | 992.6 |
| 20260507045810 | 76 | 180 | 4.0 | 9.0 | 0.00 | 0.01 | 0.01 | 46 | 992.6 |
| 20260507045047 | 76 | 191 | 6.0 | 9.0 | 0.00 | 0.01 | 0.01 | 42 | 992.8 |
| 20260507044541 | 76 | 195 | 5.0 | 9.0 | 0.00 | 0.01 | 0.01 | 46 | 992.7 |
| 20260507044246 | 77 | 215 | 8.0 | 9.0 | 0.00 | 0.01 | 0.01 | 46 | 992.8 |
| 20260507043523 | 77 | 176 | 5.0 | 9.0 | 0.00 | 0.01 | 0.01 | 43 | 992.9 |
| 20260507043020 | 78 | 201 | 5.0 | 8.0 | 0.00 | 0.01 | 0.01 | 49 | 992.9 |
| 20260507042516 | 79 | 182 | 4.0 | 8.0 | 0.00 | 0.01 | 0.01 | 45 | 992.8 |
| 20260507042009 | 79 | 173 | 4.0 | 7.0 | 0.00 | 0.01 | 0.01 | 44 | 992.8 |
| 20260507041509 | 79 | 184 | 5.0 | 7.0 | 0.00 | 0.01 | 0.01 | 46 | 992.9 |
| 20260507041008 | 79 | 184 | 5.0 | 7.0 | 0.00 | 0.01 | 0.01 | 49 | 992.8 |
| 20260507040509 | 78 | 197 | 4.0 | 7.0 | 0.00 | 0.01 | 0.01 | 50 | 992.8 |
| 20260507040005 | 78 | 182 | 4.0 | 10.0 | 0.00 | 0.01 | 0.01 | 47 | 993.0 |
| 20260507035500 | 77 | 177 | 5.0 | 11.0 | 0.00 | 0.01 | 0.01 | 49 | 992.8 |
| 20260507034957 | 78 | 181 | 4.0 | 11.0 | 0.00 | 0.01 | 0.01 | 44 | 992.9 |
| 20260507034443 | 78 | 197 | 5.0 | 9.0 | 0.00 | 0.01 | 0.01 | 49 | 993.0 |
| 20260507033927 | 79 | 188 | 5.0 | 12.0 | 0.00 | 0.01 | 0.01 | 48 | 993.1 |
| 20260507033423 | 79 | 178 | 6.0 | 12.0 | 0.00 | 0.01 | 0.01 | 54 | 992.9 |
| 20260507032919 | 79 | 170 | 6.0 | 9.0 | 0.00 | 0.01 | 0.01 | 49 | 992.8 |
| 20260507032416 | 79 | 166 | 6.0 | 9.0 | 0.00 | 0.01 | 0.01 | 54 | 992.8 |
| 20260507031912 | 79 | 178 | 7.0 | 10.0 | 0.00 | 0.01 | 0.01 | 53 | 993.1 |
| 20260507031406 | 78 | 176 | 5.0 | 10.0 | 0.00 | 0.01 | 0.01 | 56 | 993.2 |
| 20260507031343 | 78 | 172 | 8.0 | 10.0 | 0.00 | 0.01 | 0.01 | 61 | 993.2 |
| 20260507030618 | 78 | 197 | 6.0 | 10.0 | 0.00 | 0.01 | 0.01 | 62 | 993.2 |
| 20260507025855 | 79 | 187 | 5.0 | 8.0 | 0.00 | 0.01 | 0.01 | 60 | 993.3 |
| 20260507025350 | 79 | 188 | 5.0 | 8.0 | 0.00 | 0.01 | 0.01 | 63 | 993.4 |
| 20260507024846 | 80 | 171 | 4.0 | 8.0 | 0.00 | 0.01 | 0.01 | 64 | 993.5 |
| 20260507024336 | 80 | 180 | 4.0 | 8.0 | 0.00 | 0.01 | 0.01 | 64 | 993.4 |
| 20260507023837 | 79 | 202 | 5.0 | 8.0 | 0.00 | 0.01 | 0.01 | 65 | 993.5 |
| 20260507023335 | 78 | 203 | 5.0 | 9.0 | 0.00 | 0.01 | 0.01 | 68 | 993.7 |
| 20260507022830 | 77 | 171 | 5.0 | 9.0 | 0.00 | 0.01 | 0.01 | 67 | 993.6 |
| 20260507022327 | 78 | 186 | 5.0 | 9.0 | 0.00 | 0.01 | 0.01 | 67 | 993.7 |
| 20260507022045 | 79 | 175 | 6.0 | 9.0 | 0.00 | 0.01 | 0.01 | 65 | 993.9 |
| 20260507021317 | 78 | 175 | 5.0 | 7.0 | 0.00 | 0.01 | 0.01 | 64 | 993.8 |
| 20260507020814 | 77 | 168 | 5.0 | 7.0 | 0.00 | 0.01 | 0.01 | 70 | 994.0 |
| 20260507020309 | 77 | 181 | 5.0 | 7.0 | 0.00 | 0.01 | 0.01 | 69 | 994.1 |
| 20260507015805 | 77 | 179 | 5.0 | 7.0 | 0.00 | 0.01 | 0.01 | 70 | 994.1 |
| 20260507015531 | 78 | 182 | 5.0 | 8.0 | 0.00 | 0.01 | 0.01 | 69 | 994.2 |
| 20260507014805 | 79 | 188 | 5.0 | 8.0 | 0.00 | 0.01 | 0.01 | 67 | 994.1 |
| 20260507014304 | 78 | 178 | 5.0 | 7.0 | 0.00 | 0.01 | 0.01 | 68 | 994.1 |
| 20260507014024 | 79 | 197 | 5.0 | 6.0 | 0.00 | 0.01 | 0.01 | 67 | 994.2 |
| 20260507013305 | 79 | 200 | 4.0 | 6.0 | 0.00 | 0.01 | 0.01 | 68 | 994.2 |
| 20260507012801 | 79 | 171 | 4.0 | 8.0 | 0.00 | 0.01 | 0.01 | 67 | 994.2 |
| 20260507012257 | 79 | 199 | 5.0 | 8.0 | 0.00 | 0.01 | 0.01 | 66 | 994.3 |
| 20260507011752 | 80 | 189 | 5.0 | 8.0 | 0.00 | 0.01 | 0.01 | 64 | 994.5 |
| 20260507011301 | 80 | 189 | 4.0 | 8.0 | 0.00 | 0.01 | 0.01 | 66 | 994.6 |
| 20260507010744 | 80 | 172 | 5.0 | 8.0 | 0.00 | 0.01 | 0.01 | 64 | 994.6 |
| 20260507010252 | 79 | 175 | 4.0 | 8.0 | 0.00 | 0.01 | 0.01 | 66 | 994.6 |
| 20260507005734 | 79 | 181 | 5.0 | 9.0 | 0.00 | 0.01 | 0.01 | 66 | 994.7 |
| 20260507005212 | 79 | 186 | 4.0 | 9.0 | 0.00 | 0.01 | 0.01 | 65 | 994.7 |
| 20260507004707 | 79 | 174 | 5.0 | 9.0 | 0.00 | 0.01 | 0.01 | 66 | 994.8 |
| 20260507004204 | 79 | 196 | 4.0 | 7.0 | 0.00 | 0.01 | 0.01 | 68 | 995.0 |
| 20260507003649 | 79 | 188 | 3.0 | 7.0 | 0.00 | 0.01 | 0.01 | 68 | 995.0 |
| 20260507003145 | 80 | 194 | 4.0 | 7.0 | 0.00 | 0.01 | 0.01 | 67 | 995.4 |
| 20260507002641 | 80 | 190 | 5.0 | 7.0 | 0.00 | 0.01 | 0.01 | 69 | 995.5 |
| 20260507002132 | 79 | 169 | 4.0 | 6.0 | 0.00 | 0.01 | 0.01 | 69 | 995.6 |
| 20260507001612 | 78 | 177 | 4.0 | 7.0 | 0.00 | 0.01 | 0.01 | 72 | 995.5 |
| 20260507001102 | 79 | 177 | 5.0 | 7.0 | 0.00 | 0.01 | 0.01 | 74 | 995.6 |
| 20260507000824 | 78 | 161 | 5.0 | 8.0 | 0.00 | 0.01 | 0.01 | 72 | 995.7 |
| 20260507000105 | 78 | 187 | 4.0 | 8.0 | 0.00 | 0.01 | 0.01 | 73 | 995.6 |
| 20260506235603 | 78 | 191 | 5.0 | 9.0 | 0.00 | 0.01 | 0.01 | 75 | 995.6 |
| 20260506235104 | 78 | 173 | 4.0 | 9.0 | 0.00 | 0.01 | 0.01 | 74 | 995.8 |
| 20260506234532 | 76 | 190 | 4.0 | 8.0 | 0.00 | 0.01 | 0.01 | 75 | 995.9 |
| 20260506234032 | 78 | 198 | 5.0 | 6.0 | 0.00 | 0.02 | 0.01 | 73 | 995.9 |
| 20260506233528 | 76 | 171 | 5.0 | 6.0 | 0.00 | 0.02 | 0.01 | 74 | 996.0 |
| 20260506233016 | 75 | 186 | 4.0 | 6.0 | 0.00 | 0.02 | 0.01 | 76 | 996.2 |
| 20260506232511 | 74 | 167 | 4.0 | 6.0 | 0.00 | 0.02 | 0.01 | 77 | 996.1 |
| 20260506232007 | 74 | 182 | 5.0 | 6.0 | 0.00 | 0.03 | 0.01 | 78 | 996.3 |
| 20260506231502 | 75 | 195 | 4.0 | 6.0 | 0.00 | 0.03 | 0.01 | 78 | 996.1 |
| 20260506230959 | 74 | 190 | 4.0 | 6.0 | 0.00 | 0.03 | 0.01 | 78 | 996.2 |
| 20260506230444 | 74 | 183 | 4.0 | 6.0 | 0.00 | 0.04 | 0.01 | 78 | 996.1 |
| 20260506225940 | 73 | 178 | 4.0 | 6.0 | 0.00 | 0.04 | 0.01 | 79 | 996.0 |
| 20260506225435 | 72 | 166 | 5.0 | 6.0 | 0.00 | 0.05 | 0.01 | 81 | 996.1 |
| 20260506224922 | 71 | 173 | 4.0 | 6.0 | 0.00 | 0.07 | 0.01 | 83 | 996.0 |
| 20260506224418 | 71 | 166 | 4.0 | 6.0 | 0.00 | 0.08 | 0.01 | 81 | 996.2 |
| 20260506224138 | 72 | 161 | 5.0 | 7.0 | 0.00 | 0.10 | 0.01 | 81 | 996.1 |
| 20260506223409 | 71 | 188 | 4.0 | 7.0 | 0.00 | 0.11 | 0.01 | 85 | 996.2 |
| 20260506222906 | 71 | 192 | 5.0 | 6.0 | 0.00 | 0.12 | 0.01 | 84 | 996.1 |
| 20260506222836 | 70 | 186 | 4.0 | 6.0 | 0.00 | 0.12 | 0.01 | 88 | 996.1 |
| 20260506221847 | 69 | 186 | 5.0 | 6.0 | 0.00 | 0.12 | 0.01 | 95 | 996.1 |
| 20260506221330 | 68 | 187 | 4.0 | 6.0 | 0.00 | 0.12 | 0.01 | 96 | 996.0 |
| 20260506220829 | 68 | 183 | 4.0 | 6.0 | 0.00 | 0.12 | 0.01 | 98 | 996.1 |
| 20260506220314 | 67 | 180 | 4.0 | 6.0 | 0.00 | 0.12 | 0.01 | 98 | 996.2 |
| 20260506215800 | 65 | 193 | 5.0 | 6.0 | 0.00 | 0.13 | 0.01 | 98 | 996.0 |
| 20260506215520 | 65 | 185 | 5.0 | 6.0 | 0.00 | 0.13 | 0.01 | 98 | 996.0 |
| 20260506214759 | 65 | 183 | 4.0 | 6.0 | 0.00 | 0.13 | 0.01 | 99 | 996.1 |
| 20260506214258 | 64 | 189 | 5.0 | 6.0 | 0.00 | 0.13 | 0.01 | 99 | 996.0 |
| 20260506213753 | 64 | 186 | 5.0 | 6.0 | 0.00 | 0.13 | 0.01 | 99 | 995.9 |
| 20260506213250 | 64 | 180 | 5.0 | 6.0 | 0.00 | 0.13 | 0.01 | 99 | 996.0 |
| 20260506213234 | 64 | 180 | 5.0 | 6.0 | 0.00 | 0.13 | 0.01 | 99 | 996.0 |
| 20260506212241 | 62 | 180 | 4.0 | 6.0 | 0.00 | 0.13 | 0.01 | 99 | 995.9 |
| 20260506211737 | 62 | 171 | 5.0 | 6.0 | 0.00 | 0.13 | 0.01 | 99 | 995.8 |
| 20260506211234 | 63 | 168 | 5.0 | 6.0 | 0.00 | 0.13 | 0.01 | 99 | 995.9 |
| 20260506210728 | 62 | 171 | 5.0 | 6.0 | 0.00 | 0.13 | 0.01 | 99 | 995.9 |
| 20260506210228 | 60 | 187 | 5.0 | 6.0 | 0.00 | 0.13 | 0.01 | 99 | 995.7 |
| 20260506205728 | 60 | 173 | 5.0 | 6.0 | 0.00 | 0.13 | 0.01 | 99 | 995.9 |
| 20260506205227 | 60 | 180 | 5.0 | 6.0 | 0.00 | 0.14 | 0.01 | 99 | 995.8 |
| 20260506204703 | 60 | 180 | 5.0 | 6.0 | 0.00 | 0.13 | 0.00 | 99 | 995.8 |
| 20260506204157 | 60 | 180 | 5.0 | 6.0 | 0.00 | 0.14 | 0.00 | 99 | 995.6 |
| 20260506203643 | 60 | 178 | 5.0 | 6.0 | 0.00 | 0.14 | 0.00 | 99 | 995.7 |
| 20260506203130 | 60 | 179 | 5.0 | 6.0 | 0.00 | 0.15 | 0.00 | 99 | 995.7 |
| 20260506202626 | 60 | 186 | 5.0 | 6.0 | 0.00 | 0.16 | 0.00 | 99 | 995.5 |
| 20260506202126 | 60 | 176 | 5.0 | 6.0 | 0.00 | 0.18 | 0.00 | 99 | 995.7 |
| 20260506201627 | 60 | 180 | 4.0 | 6.0 | 0.00 | 0.18 | 0.00 | 99 | 995.5 |
| 20260506201123 | 60 | 182 | 5.0 | 6.0 | 0.00 | 0.18 | 0.00 | 99 | 995.3 |
| 20260506200619 | 60 | 185 | 5.0 | 6.0 | 0.00 | 0.18 | 0.00 | 99 | 995.3 |
| 20260506200114 | 60 | 182 | 5.0 | 6.0 | 0.00 | 0.18 | 0.00 | 99 | 995.3 |
| 20260506195830 | 60 | 180 | 5.0 | 6.0 | 0.00 | 0.18 | 0.00 | 99 | 995.3 |